Korce, Albania
Current Conditions -  °F | °C
As of 4:30 PM on Monday 26 Jan 2015 (Local Time) from LWOH Reporting Station
Broken Clouds Broken Clouds  
Wind Chill: 28°   Ceiling: 9000
Heat Index: 36°   Visibility: 6mi
Dew Point: 32°   Wind: 12mph
Humidity: 87%   Direction: 340°NNW
Pressure: 30"   Gusts: NA
Location:  40.62°N, 20.78°E
Report Text: LWOH 261430Z 34010KT 9999 FEW020 SCT033 BKN090 02/M00 Q1016
Loading
Personal Weather Stations






























Interactive Weather Map New forecast layout! Learn more

10-Day Weather Forecast

Advertisements
Track Severe Weather on mobile